sensor_id;sensor_type;location;lat;lon;timestamp;P1;durP1;ratioP1;P2;durP2;ratioP2
51692;SDS011;37777;53.066;21.638;2023-07-28T00:04:10;12.40;;;9.30;;
51692;SDS011;37777;53.066;21.638;2023-07-28T00:11:13;10.27;;;9.27;;
51692;SDS011;37777;53.066;21.638;2023-07-28T00:18:16;10.88;;;9.77;;
51692;SDS011;37777;53.066;21.638;2023-07-28T00:25:20;10.55;;;9.45;;
51692;SDS011;37777;53.066;21.638;2023-07-28T00:32:23;10.43;;;9.52;;
51692;SDS011;37777;53.066;21.638;2023-07-28T00:39:26;10.68;;;9.85;;
51692;SDS011;37777;53.066;21.638;2023-07-28T00:46:28;10.13;;;9.32;;
51692;SDS011;37777;53.066;21.638;2023-07-28T00:53:30;10.60;;;9.57;;
51692;SDS011;37777;53.066;21.638;2023-07-28T01:00:32;10.25;;;9.50;;
51692;SDS011;37777;53.066;21.638;2023-07-28T01:14:43;10.18;;;9.25;;
51692;SDS011;37777;53.066;21.638;2023-07-28T01:21:53;10.23;;;9.23;;
51692;SDS011;37777;53.066;21.638;2023-07-28T01:29:03;12.00;;;9.35;;
51692;SDS011;37777;53.066;21.638;2023-07-28T01:36:07;10.13;;;9.23;;
51692;SDS011;37777;53.066;21.638;2023-07-28T01:43:09;10.07;;;9.27;;
51692;SDS011;37777;53.066;21.638;2023-07-28T01:50:11;11.38;;;10.05;;
51692;SDS011;37777;53.066;21.638;2023-07-28T01:57:13;11.07;;;10.13;;
51692;SDS011;37777;53.066;21.638;2023-07-28T02:04:15;10.43;;;9.55;;
51692;SDS011;37777;53.066;21.638;2023-07-28T02:11:18;10.40;;;9.25;;
51692;SDS011;37777;53.066;21.638;2023-07-28T02:18:20;9.80;;;8.90;;
51692;SDS011;37777;53.066;21.638;2023-07-28T02:25:22;11.35;;;9.70;;
51692;SDS011;37777;53.066;21.638;2023-07-28T02:32:25;9.80;;;9.00;;
51692;SDS011;37777;53.066;21.638;2023-07-28T02:39:28;10.75;;;9.63;;
51692;SDS011;37777;53.066;21.638;2023-07-28T02:46:30;10.13;;;9.23;;
51692;SDS011;37777;53.066;21.638;2023-07-28T02:53:32;11.35;;;10.35;;
51692;SDS011;37777;53.066;21.638;2023-07-28T03:00:38;12.57;;;11.63;;
51692;SDS011;37777;53.066;21.638;2023-07-28T03:07:43;14.20;;;12.50;;
51692;SDS011;37777;53.066;21.638;2023-07-28T03:14:49;13.55;;;12.25;;
51692;SDS011;37777;53.066;21.638;2023-07-28T03:21:51;13.70;;;12.43;;
51692;SDS011;37777;53.066;21.638;2023-07-28T03:28:53;14.05;;;11.98;;
51692;SDS011;37777;53.066;21.638;2023-07-28T03:35:55;13.80;;;12.32;;
51692;SDS011;37777;53.066;21.638;2023-07-28T03:42:57;13.82;;;12.52;;
51692;SDS011;37777;53.066;21.638;2023-07-28T03:49:59;13.25;;;11.98;;
51692;SDS011;37777;53.066;21.638;2023-07-28T03:57:01;14.15;;;12.95;;
51692;SDS011;37777;53.066;21.638;2023-07-28T04:04:03;13.23;;;12.02;;
51692;SDS011;37777;53.066;21.638;2023-07-28T04:11:09;14.60;;;13.30;;
51692;SDS011;37777;53.066;21.638;2023-07-28T04:18:11;14.45;;;13.13;;
51692;SDS011;37777;53.066;21.638;2023-07-28T04:25:13;14.35;;;13.02;;
51692;SDS011;37777;53.066;21.638;2023-07-28T04:32:16;14.07;;;12.93;;
51692;SDS011;37777;53.066;21.638;2023-07-28T04:39:18;15.10;;;13.20;;
51692;SDS011;37777;53.066;21.638;2023-07-28T04:46:20;13.38;;;12.10;;
51692;SDS011;37777;53.066;21.638;2023-07-28T04:53:23;12.32;;;11.32;;
51692;SDS011;37777;53.066;21.638;2023-07-28T05:00:25;13.55;;;12.45;;
51692;SDS011;37777;53.066;21.638;2023-07-28T05:07:27;12.43;;;11.38;;
51692;SDS011;37777;53.066;21.638;2023-07-28T05:14:30;11.82;;;10.68;;
51692;SDS011;37777;53.066;21.638;2023-07-28T05:21:32;11.65;;;10.65;;
51692;SDS011;37777;53.066;21.638;2023-07-28T05:28:35;11.10;;;10.27;;
51692;SDS011;37777;53.066;21.638;2023-07-28T05:35:37;11.75;;;10.65;;
51692;SDS011;37777;53.066;21.638;2023-07-28T05:42:39;11.35;;;10.45;;
51692;SDS011;37777;53.066;21.638;2023-07-28T05:49:45;12.15;;;10.90;;
51692;SDS011;37777;53.066;21.638;2023-07-28T05:56:51;12.25;;;11.25;;
51692;SDS011;37777;53.066;21.638;2023-07-28T06:03:53;11.90;;;11.00;;
51692;SDS011;37777;53.066;21.638;2023-07-28T06:11:03;11.90;;;11.00;;
51692;SDS011;37777;53.066;21.638;2023-07-28T06:18:07;12.27;;;11.05;;
51692;SDS011;37777;53.066;21.638;2023-07-28T06:25:09;14.63;;;10.85;;
51692;SDS011;37777;53.066;21.638;2023-07-28T06:32:12;13.05;;;11.68;;
51692;SDS011;37777;53.066;21.638;2023-07-28T06:39:14;12.98;;;11.77;;
51692;SDS011;37777;53.066;21.638;2023-07-28T06:46:16;14.10;;;12.82;;
51692;SDS011;37777;53.066;21.638;2023-07-28T06:53:19;13.70;;;12.25;;
51692;SDS011;37777;53.066;21.638;2023-07-28T07:00:21;13.05;;;11.80;;
51692;SDS011;37777;53.066;21.638;2023-07-28T07:07:23;13.57;;;12.38;;
51692;SDS011;37777;53.066;21.638;2023-07-28T07:14:31;13.15;;;12.00;;
51692;SDS011;37777;53.066;21.638;2023-07-28T07:21:33;13.10;;;12.10;;
51692;SDS011;37777;53.066;21.638;2023-07-28T07:28:35;12.70;;;11.60;;
51692;SDS011;37777;53.066;21.638;2023-07-28T07:35:37;12.82;;;11.52;;
51692;SDS011;37777;53.066;21.638;2023-07-28T07:44:27;13.65;;;12.38;;
51692;SDS011;37777;53.066;21.638;2023-07-28T07:51:29;12.77;;;11.68;;
51692;SDS011;37777;53.066;21.638;2023-07-28T07:58:31;13.68;;;11.32;;
51692;SDS011;37777;53.066;21.638;2023-07-28T08:05:34;12.65;;;11.35;;
51692;SDS011;37777;53.066;21.638;2023-07-28T08:12:36;12.73;;;11.73;;
51692;SDS011;37777;53.066;21.638;2023-07-28T08:19:41;12.60;;;11.50;;
51692;SDS011;37777;53.066;21.638;2023-07-28T08:26:43;12.10;;;11.05;;
51692;SDS011;37777;53.066;21.638;2023-07-28T08:33:48;13.45;;;12.15;;
51692;SDS011;37777;53.066;21.638;2023-07-28T08:40:50;13.50;;;12.20;;
51692;SDS011;37777;53.066;21.638;2023-07-28T08:47:52;13.98;;;12.05;;
51692;SDS011;37777;53.066;21.638;2023-07-28T08:54:54;13.25;;;11.95;;
51692;SDS011;37777;53.066;21.638;2023-07-28T09:01:57;13.27;;;10.98;;
51692;SDS011;37777;53.066;21.638;2023-07-28T09:09:01;11.98;;;10.70;;
51692;SDS011;37777;53.066;21.638;2023-07-28T09:16:03;11.30;;;10.30;;
51692;SDS011;37777;53.066;21.638;2023-07-28T09:23:08;11.68;;;10.57;;
51692;SDS011;37777;53.066;21.638;2023-07-28T09:30:12;12.10;;;11.00;;
51692;SDS011;37777;53.066;21.638;2023-07-28T09:37:18;12.55;;;10.68;;
51692;SDS011;37777;53.066;21.638;2023-07-28T09:44:21;11.82;;;10.82;;
51692;SDS011;37777;53.066;21.638;2023-07-28T09:51:23;10.93;;;10.00;;
51692;SDS011;37777;53.066;21.638;2023-07-28T10:05:36;12.68;;;11.38;;
51692;SDS011;37777;53.066;21.638;2023-07-28T10:12:42;13.45;;;12.18;;
51692;SDS011;37777;53.066;21.638;2023-07-28T10:19:48;13.63;;;12.27;;
51692;SDS011;37777;53.066;21.638;2023-07-28T10:26:51;14.23;;;12.63;;
51692;SDS011;37777;53.066;21.638;2023-07-28T10:34:00;14.18;;;12.73;;
51692;SDS011;37777;53.066;21.638;2023-07-28T10:41:06;13.57;;;12.35;;
51692;SDS011;37777;53.066;21.638;2023-07-28T10:48:09;14.45;;;13.15;;
51692;SDS011;37777;53.066;21.638;2023-07-28T10:55:15;13.25;;;12.05;;
51692;SDS011;37777;53.066;21.638;2023-07-28T11:02:18;12.63;;;11.52;;
51692;SDS011;37777;53.066;21.638;2023-07-28T11:09:22;12.68;;;11.48;;
51692;SDS011;37777;53.066;21.638;2023-07-28T11:16:25;12.70;;;11.43;;
51692;SDS011;37777;53.066;21.638;2023-07-28T11:23:27;13.30;;;12.07;;
51692;SDS011;37777;53.066;21.638;2023-07-28T11:30:30;13.07;;;11.85;;
51692;SDS011;37777;53.066;21.638;2023-07-28T11:37:33;11.73;;;10.73;;
51692;SDS011;37777;53.066;21.638;2023-07-28T11:44:43;11.57;;;10.52;;
51692;SDS011;37777;53.066;21.638;2023-07-28T11:51:48;10.70;;;9.77;;
51692;SDS011;37777;53.066;21.638;2023-07-28T11:58:51;10.50;;;9.70;;
51692;SDS011;37777;53.066;21.638;2023-07-28T12:06:04;10.02;;;9.23;;
51692;SDS011;37777;53.066;21.638;2023-07-28T12:13:29;10.13;;;9.18;;
51692;SDS011;37777;53.066;21.638;2023-07-28T12:27:40;9.43;;;8.65;;
51692;SDS011;37777;53.066;21.638;2023-07-28T12:34:44;10.05;;;9.27;;
51692;SDS011;37777;53.066;21.638;2023-07-28T12:41:52;9.40;;;8.55;;
51692;SDS011;37777;53.066;21.638;2023-07-28T12:48:59;8.82;;;8.18;;
51692;SDS011;37777;53.066;21.638;2023-07-28T12:56:02;8.93;;;8.23;;
51692;SDS011;37777;53.066;21.638;2023-07-28T13:03:04;9.70;;;8.90;;
51692;SDS011;37777;53.066;21.638;2023-07-28T13:10:08;8.93;;;8.23;;
51692;SDS011;37777;53.066;21.638;2023-07-28T13:17:32;9.90;;;9.10;;
51692;SDS011;37777;53.066;21.638;2023-07-28T13:24:34;11.10;;;10.00;;
51692;SDS011;37777;53.066;21.638;2023-07-28T13:31:36;10.57;;;9.75;;
51692;SDS011;37777;53.066;21.638;2023-07-28T13:38:39;13.50;;;10.43;;
51692;SDS011;37777;53.066;21.638;2023-07-28T13:45:42;10.98;;;10.05;;
51692;SDS011;37777;53.066;21.638;2023-07-28T13:52:45;9.88;;;9.13;;
51692;SDS011;37777;53.066;21.638;2023-07-28T13:59:50;10.20;;;9.30;;
51692;SDS011;37777;53.066;21.638;2023-07-28T14:06:53;12.20;;;11.10;;
51692;SDS011;37777;53.066;21.638;2023-07-28T14:13:55;11.85;;;10.75;;
51692;SDS011;37777;53.066;21.638;2023-07-28T14:20:57;12.48;;;11.30;;
51692;SDS011;37777;53.066;21.638;2023-07-28T14:27:59;13.45;;;12.15;;
51692;SDS011;37777;53.066;21.638;2023-07-28T14:35:01;12.52;;;11.25;;
51692;SDS011;37777;53.066;21.638;2023-07-28T14:42:06;15.35;;;13.10;;
51692;SDS011;37777;53.066;21.638;2023-07-28T14:49:11;40.95;;;21.05;;
51692;SDS011;37777;53.066;21.638;2023-07-28T14:56:16;13.90;;;12.48;;
51692;SDS011;37777;53.066;21.638;2023-07-28T15:03:22;13.93;;;12.57;;
51692;SDS011;37777;53.066;21.638;2023-07-28T15:10:28;14.18;;;12.50;;
51692;SDS011;37777;53.066;21.638;2023-07-28T15:17:34;16.95;;;15.25;;
51692;SDS011;37777;53.066;21.638;2023-07-28T15:24:40;15.52;;;14.02;;
51692;SDS011;37777;53.066;21.638;2023-07-28T15:31:48;16.83;;;14.35;;
51692;SDS011;37777;53.066;21.638;2023-07-28T15:38:52;16.83;;;14.57;;
51692;SDS011;37777;53.066;21.638;2023-07-28T15:45:55;16.65;;;14.77;;
51692;SDS011;37777;53.066;21.638;2023-07-28T15:52:58;17.13;;;15.15;;
51692;SDS011;37777;53.066;21.638;2023-07-28T16:00:01;18.65;;;14.65;;
51692;SDS011;37777;53.066;21.638;2023-07-28T16:07:05;17.70;;;15.18;;
51692;SDS011;37777;53.066;21.638;2023-07-28T16:14:08;15.45;;;13.85;;
51692;SDS011;37777;53.066;21.638;2023-07-28T16:21:10;13.90;;;12.48;;
51692;SDS011;37777;53.066;21.638;2023-07-28T16:28:12;12.25;;;10.95;;
51692;SDS011;37777;53.066;21.638;2023-07-28T16:35:17;10.45;;;9.52;;
51692;SDS011;37777;53.066;21.638;2023-07-28T16:42:19;11.40;;;10.27;;
51692;SDS011;37777;53.066;21.638;2023-07-28T16:49:22;10.88;;;9.88;;
51692;SDS011;37777;53.066;21.638;2023-07-28T16:56:24;11.98;;;10.77;;
51692;SDS011;37777;53.066;21.638;2023-07-28T17:03:26;18.10;;;15.05;;
51692;SDS011;37777;53.066;21.638;2023-07-28T17:10:29;13.73;;;12.32;;
51692;SDS011;37777;53.066;21.638;2023-07-28T17:17:32;12.50;;;11.23;;
51692;SDS011;37777;53.066;21.638;2023-07-28T17:24:34;12.70;;;11.40;;
51692;SDS011;37777;53.066;21.638;2023-07-28T17:31:36;14.07;;;12.15;;
51692;SDS011;37777;53.066;21.638;2023-07-28T17:38:39;13.23;;;11.90;;
51692;SDS011;37777;53.066;21.638;2023-07-28T17:45:41;12.85;;;11.63;;
51692;SDS011;37777;53.066;21.638;2023-07-28T17:52:44;12.27;;;11.15;;
51692;SDS011;37777;53.066;21.638;2023-07-28T17:59:47;12.57;;;11.40;;
51692;SDS011;37777;53.066;21.638;2023-07-28T18:06:49;13.30;;;11.93;;
51692;SDS011;37777;53.066;21.638;2023-07-28T18:13:52;12.40;;;11.18;;
51692;SDS011;37777;53.066;21.638;2023-07-28T18:20:54;12.35;;;11.13;;
51692;SDS011;37777;53.066;21.638;2023-07-28T18:27:57;14.27;;;12.45;;
51692;SDS011;37777;53.066;21.638;2023-07-28T18:35:00;12.95;;;11.65;;
51692;SDS011;37777;53.066;21.638;2023-07-28T18:42:03;12.93;;;11.63;;
51692;SDS011;37777;53.066;21.638;2023-07-28T18:49:05;15.73;;;12.65;;
51692;SDS011;37777;53.066;21.638;2023-07-28T18:56:08;13.77;;;12.48;;
51692;SDS011;37777;53.066;21.638;2023-07-28T19:03:10;13.35;;;11.73;;
51692;SDS011;37777;53.066;21.638;2023-07-28T19:10:13;13.45;;;12.05;;
51692;SDS011;37777;53.066;21.638;2023-07-28T19:17:15;17.67;;;14.88;;
51692;SDS011;37777;53.066;21.638;2023-07-28T19:24:18;16.33;;;14.20;;
51692;SDS011;37777;53.066;21.638;2023-07-28T19:31:23;17.95;;;16.00;;
51692;SDS011;37777;53.066;21.638;2023-07-28T19:38:26;24.05;;;16.42;;
51692;SDS011;37777;53.066;21.638;2023-07-28T19:45:29;23.20;;;18.00;;
51692;SDS011;37777;53.066;21.638;2023-07-28T19:52:32;27.40;;;17.08;;
51692;SDS011;37777;53.066;21.638;2023-07-28T19:59:34;23.20;;;16.40;;
51692;SDS011;37777;53.066;21.638;2023-07-28T20:06:38;43.05;;;14.32;;
51692;SDS011;37777;53.066;21.638;2023-07-28T20:13:44;35.95;;;14.10;;
51692;SDS011;37777;53.066;21.638;2023-07-28T20:20:48;45.15;;;14.27;;
51692;SDS011;37777;53.066;21.638;2023-07-28T20:27:51;28.02;;;14.43;;
51692;SDS011;37777;53.066;21.638;2023-07-28T20:34:56;30.10;;;14.73;;
51692;SDS011;37777;53.066;21.638;2023-07-28T20:42:00;16.92;;;13.90;;
51692;SDS011;37777;53.066;21.638;2023-07-28T20:49:02;20.88;;;14.75;;
51692;SDS011;37777;53.066;21.638;2023-07-28T20:56:06;19.33;;;15.50;;
51692;SDS011;37777;53.066;21.638;2023-07-28T21:03:13;19.90;;;16.88;;
51692;SDS011;37777;53.066;21.638;2023-07-28T21:10:16;21.48;;;17.42;;
51692;SDS011;37777;53.066;21.638;2023-07-28T21:17:21;20.77;;;16.60;;
51692;SDS011;37777;53.066;21.638;2023-07-28T21:24:24;22.50;;;16.15;;
51692;SDS011;37777;53.066;21.638;2023-07-28T21:31:28;19.33;;;16.35;;
51692;SDS011;37777;53.066;21.638;2023-07-28T21:38:32;19.48;;;15.27;;
51692;SDS011;37777;53.066;21.638;2023-07-28T21:45:36;17.70;;;15.32;;
51692;SDS011;37777;53.066;21.638;2023-07-28T21:52:40;15.05;;;13.55;;
51692;SDS011;37777;53.066;21.638;2023-07-28T21:59:44;15.40;;;13.82;;
51692;SDS011;37777;53.066;21.638;2023-07-28T22:06:46;16.30;;;13.32;;
51692;SDS011;37777;53.066;21.638;2023-07-28T22:13:48;15.98;;;13.30;;
51692;SDS011;37777;53.066;21.638;2023-07-28T22:20:50;14.85;;;12.60;;
51692;SDS011;37777;53.066;21.638;2023-07-28T22:27:52;13.45;;;12.05;;
51692;SDS011;37777;53.066;21.638;2023-07-28T22:34:57;13.32;;;12.02;;
51692;SDS011;37777;53.066;21.638;2023-07-28T22:41:59;12.52;;;11.43;;
51692;SDS011;37777;53.066;21.638;2023-07-28T22:49:01;13.15;;;11.70;;
51692;SDS011;37777;53.066;21.638;2023-07-28T22:56:03;13.07;;;11.77;;
51692;SDS011;37777;53.066;21.638;2023-07-28T23:03:05;14.75;;;12.55;;
51692;SDS011;37777;53.066;21.638;2023-07-28T23:10:07;14.85;;;12.20;;
51692;SDS011;37777;53.066;21.638;2023-07-28T23:17:10;13.18;;;11.88;;
51692;SDS011;37777;53.066;21.638;2023-07-28T23:24:12;13.80;;;12.50;;
51692;SDS011;37777;53.066;21.638;2023-07-28T23:31:15;13.00;;;11.82;;
51692;SDS011;37777;53.066;21.638;2023-07-28T23:38:18;14.52;;;12.52;;
51692;SDS011;37777;53.066;21.638;2023-07-28T23:45:20;13.80;;;12.40;;
51692;SDS011;37777;53.066;21.638;2023-07-28T23:52:22;14.32;;;12.95;;
51692;SDS011;37777;53.066;21.638;2023-07-28T23:59:24;14.18;;;12.77;;
